sensor_id;sensor_type;location;lat;lon;timestamp;P1;durP1;ratioP1;P2;durP2;ratioP2
62709;SDS011;48770;51.624;5.886;2023-07-28T00:01:51;0.10;;;0.10;;
62709;SDS011;48770;51.624;5.886;2023-07-28T00:04:16;1.25;;;0.13;;
62709;SDS011;48770;51.624;5.886;2023-07-28T00:06:41;0.10;;;0.10;;
62709;SDS011;48770;51.624;5.886;2023-07-28T00:09:07;0.40;;;0.10;;
62709;SDS011;48770;51.624;5.886;2023-07-28T00:11:32;0.10;;;0.00;;
62709;SDS011;48770;51.624;5.886;2023-07-28T00:13:57;0.20;;;0.10;;
62709;SDS011;48770;51.624;5.886;2023-07-28T00:16:23;0.20;;;0.00;;
62709;SDS011;48770;51.624;5.886;2023-07-28T00:18:48;0.10;;;0.10;;
62709;SDS011;48770;51.624;5.886;2023-07-28T00:21:13;0.33;;;0.00;;
62709;SDS011;48770;51.624;5.886;2023-07-28T00:23:38;0.20;;;0.17;;
62709;SDS011;48770;51.624;5.886;2023-07-28T00:26:04;0.10;;;0.00;;
62709;SDS011;48770;51.624;5.886;2023-07-28T00:28:29;0.10;;;0.10;;
62709;SDS011;48770;51.624;5.886;2023-07-28T00:30:54;0.10;;;0.10;;
62709;SDS011;48770;51.624;5.886;2023-07-28T00:33:19;0.10;;;0.10;;
62709;SDS011;48770;51.624;5.886;2023-07-28T00:35:45;0.47;;;0.10;;
62709;SDS011;48770;51.624;5.886;2023-07-28T00:38:10;0.10;;;0.08;;
62709;SDS011;48770;51.624;5.886;2023-07-28T00:40:35;0.10;;;0.10;;
62709;SDS011;48770;51.624;5.886;2023-07-28T00:43:01;0.10;;;0.10;;
62709;SDS011;48770;51.624;5.886;2023-07-28T00:45:26;0.00;;;0.00;;
62709;SDS011;48770;51.624;5.886;2023-07-28T00:47:52;0.10;;;0.10;;
62709;SDS011;48770;51.624;5.886;2023-07-28T00:50:18;0.00;;;0.00;;
62709;SDS011;48770;51.624;5.886;2023-07-28T00:52:44;0.00;;;0.00;;
62709;SDS011;48770;51.624;5.886;2023-07-28T00:55:11;0.20;;;0.10;;
62709;SDS011;48770;51.624;5.886;2023-07-28T00:57:37;0.10;;;0.00;;
62709;SDS011;48770;51.624;5.886;2023-07-28T01:00:04;0.05;;;0.00;;
62709;SDS011;48770;51.624;5.886;2023-07-28T01:02:30;0.10;;;0.10;;
62709;SDS011;48770;51.624;5.886;2023-07-28T01:04:56;0.00;;;0.00;;
62709;SDS011;48770;51.624;5.886;2023-07-28T01:10:28;0.08;;;0.08;;
62709;SDS011;48770;51.624;5.886;2023-07-28T01:12:59;0.20;;;0.10;;
62709;SDS011;48770;51.624;5.886;2023-07-28T01:15:24;0.07;;;0.07;;
62709;SDS011;48770;51.624;5.886;2023-07-28T01:17:50;0.05;;;0.00;;
62709;SDS011;48770;51.624;5.886;2023-07-28T01:20:16;0.00;;;0.00;;
62709;SDS011;48770;51.624;5.886;2023-07-28T01:27:46;0.00;;;0.00;;
62709;SDS011;48770;51.624;5.886;2023-07-28T01:30:13;0.05;;;0.00;;
62709;SDS011;48770;51.624;5.886;2023-07-28T01:32:39;0.15;;;0.05;;
62709;SDS011;48770;51.624;5.886;2023-07-28T01:35:04;0.00;;;0.00;;
62709;SDS011;48770;51.624;5.886;2023-07-28T01:37:30;0.10;;;0.10;;
62709;SDS011;48770;51.624;5.886;2023-07-28T01:39:55;0.20;;;0.10;;
62709;SDS011;48770;51.624;5.886;2023-07-28T01:42:22;0.10;;;0.10;;
62709;SDS011;48770;51.624;5.886;2023-07-28T01:44:47;0.10;;;0.10;;
62709;SDS011;48770;51.624;5.886;2023-07-28T01:47:12;0.10;;;0.00;;
62709;SDS011;48770;51.624;5.886;2023-07-28T01:49:38;0.20;;;0.10;;
62709;SDS011;48770;51.624;5.886;2023-07-28T01:52:03;0.00;;;0.00;;
62709;SDS011;48770;51.624;5.886;2023-07-28T01:54:29;0.10;;;0.10;;
62709;SDS011;48770;51.624;5.886;2023-07-28T01:56:54;0.07;;;0.00;;
62709;SDS011;48770;51.624;5.886;2023-07-28T01:59:19;0.07;;;0.07;;
62709;SDS011;48770;51.624;5.886;2023-07-28T02:01:46;0.03;;;0.03;;
62709;SDS011;48770;51.624;5.886;2023-07-28T02:04:11;0.10;;;0.10;;
62709;SDS011;48770;51.624;5.886;2023-07-28T02:06:37;0.20;;;0.10;;
62709;SDS011;48770;51.624;5.886;2023-07-28T02:09:02;0.10;;;0.10;;
62709;SDS011;48770;51.624;5.886;2023-07-28T02:11:28;0.00;;;0.00;;
62709;SDS011;48770;51.624;5.886;2023-07-28T02:13:53;0.00;;;0.00;;
62709;SDS011;48770;51.624;5.886;2023-07-28T02:16:19;0.20;;;0.08;;
62709;SDS011;48770;51.624;5.886;2023-07-28T02:18:44;0.10;;;0.00;;
62709;SDS011;48770;51.624;5.886;2023-07-28T02:21:09;0.33;;;0.10;;
62709;SDS011;48770;51.624;5.886;2023-07-28T02:23:34;0.10;;;0.10;;
62709;SDS011;48770;51.624;5.886;2023-07-28T02:26:00;0.30;;;0.10;;
62709;SDS011;48770;51.624;5.886;2023-07-28T02:28:25;0.37;;;0.10;;
62709;SDS011;48770;51.624;5.886;2023-07-28T02:30:50;0.00;;;0.00;;
62709;SDS011;48770;51.624;5.886;2023-07-28T02:33:16;0.10;;;0.00;;
62709;SDS011;48770;51.624;5.886;2023-07-28T02:35:41;0.00;;;0.00;;
62709;SDS011;48770;51.624;5.886;2023-07-28T02:38:07;0.00;;;0.00;;
62709;SDS011;48770;51.624;5.886;2023-07-28T02:40:33;0.20;;;0.10;;
62709;SDS011;48770;51.624;5.886;2023-07-28T02:42:58;0.30;;;0.10;;
62709;SDS011;48770;51.624;5.886;2023-07-28T02:45:24;0.37;;;0.00;;
62709;SDS011;48770;51.624;5.886;2023-07-28T02:47:50;0.00;;;0.00;;
62709;SDS011;48770;51.624;5.886;2023-07-28T02:50:15;0.45;;;0.15;;
62709;SDS011;48770;51.624;5.886;2023-07-28T02:52:41;0.10;;;0.10;;
62709;SDS011;48770;51.624;5.886;2023-07-28T02:55:06;0.10;;;0.10;;
62709;SDS011;48770;51.624;5.886;2023-07-28T02:57:31;0.10;;;0.10;;
62709;SDS011;48770;51.624;5.886;2023-07-28T02:59:57;0.15;;;0.10;;
62709;SDS011;48770;51.624;5.886;2023-07-28T03:02:23;0.10;;;0.08;;
62709;SDS011;48770;51.624;5.886;2023-07-28T03:04:48;0.10;;;0.10;;
62709;SDS011;48770;51.624;5.886;2023-07-28T03:07:13;0.10;;;0.10;;
62709;SDS011;48770;51.624;5.886;2023-07-28T03:09:38;0.10;;;0.10;;
62709;SDS011;48770;51.624;5.886;2023-07-28T03:12:04;0.10;;;0.10;;
62709;SDS011;48770;51.624;5.886;2023-07-28T03:14:31;0.10;;;0.10;;
62709;SDS011;48770;51.624;5.886;2023-07-28T03:16:56;0.15;;;0.15;;
62709;SDS011;48770;51.624;5.886;2023-07-28T03:19:22;0.10;;;0.10;;
62709;SDS011;48770;51.624;5.886;2023-07-28T03:21:47;0.10;;;0.10;;
62709;SDS011;48770;51.624;5.886;2023-07-28T03:24:13;0.20;;;0.20;;
62709;SDS011;48770;51.624;5.886;2023-07-28T03:26:38;0.00;;;0.00;;
62709;SDS011;48770;51.624;5.886;2023-07-28T03:29:03;0.10;;;0.10;;
62709;SDS011;48770;51.624;5.886;2023-07-28T03:31:29;0.20;;;0.10;;
62709;SDS011;48770;51.624;5.886;2023-07-28T03:33:54;0.10;;;0.10;;
62709;SDS011;48770;51.624;5.886;2023-07-28T03:36:20;0.00;;;0.00;;
62709;SDS011;48770;51.624;5.886;2023-07-28T03:38:46;0.05;;;0.03;;
62709;SDS011;48770;51.624;5.886;2023-07-28T03:41:12;0.10;;;0.10;;
62709;SDS011;48770;51.624;5.886;2023-07-28T03:43:38;0.10;;;0.10;;
62709;SDS011;48770;51.624;5.886;2023-07-28T03:46:03;0.10;;;0.10;;
62709;SDS011;48770;51.624;5.886;2023-07-28T03:48:28;0.10;;;0.10;;
62709;SDS011;48770;51.624;5.886;2023-07-28T03:50:54;0.10;;;0.10;;
62709;SDS011;48770;51.624;5.886;2023-07-28T03:53:19;0.10;;;0.10;;
62709;SDS011;48770;51.624;5.886;2023-07-28T03:55:44;0.10;;;0.10;;
62709;SDS011;48770;51.624;5.886;2023-07-28T03:58:10;0.10;;;0.10;;
62709;SDS011;48770;51.624;5.886;2023-07-28T04:00:35;0.10;;;0.10;;
62709;SDS011;48770;51.624;5.886;2023-07-28T04:03:00;0.20;;;0.20;;
62709;SDS011;48770;51.624;5.886;2023-07-28T04:05:26;0.50;;;0.20;;
62709;SDS011;48770;51.624;5.886;2023-07-28T04:07:51;0.20;;;0.20;;
62709;SDS011;48770;51.624;5.886;2023-07-28T04:10:16;0.10;;;0.10;;
62709;SDS011;48770;51.624;5.886;2023-07-28T04:12:42;0.08;;;0.00;;
62709;SDS011;48770;51.624;5.886;2023-07-28T04:15:07;0.10;;;0.10;;
62709;SDS011;48770;51.624;5.886;2023-07-28T04:17:33;0.22;;;0.20;;
62709;SDS011;48770;51.624;5.886;2023-07-28T04:19:58;0.10;;;0.10;;
62709;SDS011;48770;51.624;5.886;2023-07-28T04:22:23;0.10;;;0.10;;
62709;SDS011;48770;51.624;5.886;2023-07-28T04:24:49;0.30;;;0.20;;
62709;SDS011;48770;51.624;5.886;2023-07-28T04:27:14;0.22;;;0.10;;
62709;SDS011;48770;51.624;5.886;2023-07-28T04:29:40;0.20;;;0.20;;
62709;SDS011;48770;51.624;5.886;2023-07-28T04:32:06;0.30;;;0.10;;
62709;SDS011;48770;51.624;5.886;2023-07-28T04:34:34;0.10;;;0.10;;
62709;SDS011;48770;51.624;5.886;2023-07-28T04:36:59;0.20;;;0.10;;
62709;SDS011;48770;51.624;5.886;2023-07-28T04:39:25;0.10;;;0.10;;
62709;SDS011;48770;51.624;5.886;2023-07-28T04:41:50;0.20;;;0.20;;
62709;SDS011;48770;51.624;5.886;2023-07-28T04:44:15;0.20;;;0.15;;
62709;SDS011;48770;51.624;5.886;2023-07-28T04:46:42;0.30;;;0.20;;
62709;SDS011;48770;51.624;5.886;2023-07-28T04:49:07;0.20;;;0.20;;
62709;SDS011;48770;51.624;5.886;2023-07-28T04:51:33;0.20;;;0.20;;
62709;SDS011;48770;51.624;5.886;2023-07-28T04:53:58;0.10;;;0.10;;
62709;SDS011;48770;51.624;5.886;2023-07-28T04:56:23;0.15;;;0.13;;
62709;SDS011;48770;51.624;5.886;2023-07-28T04:58:48;0.10;;;0.10;;
62709;SDS011;48770;51.624;5.886;2023-07-28T05:01:14;0.38;;;0.38;;
62709;SDS011;48770;51.624;5.886;2023-07-28T05:03:39;0.10;;;0.10;;
62709;SDS011;48770;51.624;5.886;2023-07-28T05:06:04;0.25;;;0.17;;
62709;SDS011;48770;51.624;5.886;2023-07-28T05:08:30;0.30;;;0.22;;
62709;SDS011;48770;51.624;5.886;2023-07-28T05:10:56;0.70;;;0.28;;
62709;SDS011;48770;51.624;5.886;2023-07-28T05:13:21;0.15;;;0.15;;
62709;SDS011;48770;51.624;5.886;2023-07-28T05:15:46;0.32;;;0.20;;
62709;SDS011;48770;51.624;5.886;2023-07-28T05:18:12;0.22;;;0.15;;
62709;SDS011;48770;51.624;5.886;2023-07-28T05:20:37;0.20;;;0.20;;
62709;SDS011;48770;51.624;5.886;2023-07-28T05:23:02;0.15;;;0.15;;
62709;SDS011;48770;51.624;5.886;2023-07-28T05:25:27;0.20;;;0.20;;
62709;SDS011;48770;51.624;5.886;2023-07-28T05:27:53;0.40;;;0.30;;
62709;SDS011;48770;51.624;5.886;2023-07-28T05:30:18;0.20;;;0.20;;
62709;SDS011;48770;51.624;5.886;2023-07-28T05:32:43;0.40;;;0.25;;
62709;SDS011;48770;51.624;5.886;2023-07-28T05:35:11;0.25;;;0.15;;
62709;SDS011;48770;51.624;5.886;2023-07-28T05:37:36;0.30;;;0.30;;
62709;SDS011;48770;51.624;5.886;2023-07-28T05:40:01;0.32;;;0.20;;
62709;SDS011;48770;51.624;5.886;2023-07-28T05:42:27;0.50;;;0.20;;
62709;SDS011;48770;51.624;5.886;2023-07-28T05:44:52;0.30;;;0.30;;
62709;SDS011;48770;51.624;5.886;2023-07-28T05:47:19;0.30;;;0.30;;
62709;SDS011;48770;51.624;5.886;2023-07-28T05:49:45;0.28;;;0.20;;
62709;SDS011;48770;51.624;5.886;2023-07-28T05:52:11;0.17;;;0.17;;
62709;SDS011;48770;51.624;5.886;2023-07-28T05:54:36;0.40;;;0.20;;
62709;SDS011;48770;51.624;5.886;2023-07-28T05:57:01;0.10;;;0.10;;
62709;SDS011;48770;51.624;5.886;2023-07-28T05:59:27;0.20;;;0.20;;
62709;SDS011;48770;51.624;5.886;2023-07-28T06:01:53;0.30;;;0.20;;
62709;SDS011;48770;51.624;5.886;2023-07-28T06:04:18;0.20;;;0.20;;
62709;SDS011;48770;51.624;5.886;2023-07-28T06:06:43;0.20;;;0.20;;
62709;SDS011;48770;51.624;5.886;2023-07-28T06:09:09;0.28;;;0.20;;
62709;SDS011;48770;51.624;5.886;2023-07-28T06:11:34;0.20;;;0.20;;
62709;SDS011;48770;51.624;5.886;2023-07-28T06:13:59;0.45;;;0.38;;
62709;SDS011;48770;51.624;5.886;2023-07-28T06:16:24;0.43;;;0.43;;
62709;SDS011;48770;51.624;5.886;2023-07-28T06:18:50;0.40;;;0.33;;
62709;SDS011;48770;51.624;5.886;2023-07-28T06:21:15;0.20;;;0.20;;
62709;SDS011;48770;51.624;5.886;2023-07-28T06:23:40;0.20;;;0.20;;
62709;SDS011;48770;51.624;5.886;2023-07-28T06:26:06;0.30;;;0.30;;
62709;SDS011;48770;51.624;5.886;2023-07-28T06:28:31;0.28;;;0.22;;
62709;SDS011;48770;51.624;5.886;2023-07-28T06:30:57;0.30;;;0.30;;
62709;SDS011;48770;51.624;5.886;2023-07-28T06:33:27;0.10;;;0.10;;
62709;SDS011;48770;51.624;5.886;2023-07-28T06:35:53;0.20;;;0.20;;
62709;SDS011;48770;51.624;5.886;2023-07-28T06:38:19;0.20;;;0.20;;
62709;SDS011;48770;51.624;5.886;2023-07-28T06:40:44;0.38;;;0.30;;
62709;SDS011;48770;51.624;5.886;2023-07-28T06:43:09;0.50;;;0.40;;
62709;SDS011;48770;51.624;5.886;2023-07-28T06:45:35;0.63;;;0.30;;
62709;SDS011;48770;51.624;5.886;2023-07-28T06:48:00;0.38;;;0.30;;
62709;SDS011;48770;51.624;5.886;2023-07-28T06:50:25;0.80;;;0.32;;
62709;SDS011;48770;51.624;5.886;2023-07-28T06:52:50;0.30;;;0.30;;
62709;SDS011;48770;51.624;5.886;2023-07-28T06:55:16;0.30;;;0.22;;
62709;SDS011;48770;51.624;5.886;2023-07-28T06:57:42;0.85;;;0.32;;
62709;SDS011;48770;51.624;5.886;2023-07-28T07:00:07;0.20;;;0.20;;
62709;SDS011;48770;51.624;5.886;2023-07-28T07:02:36;0.30;;;0.30;;
62709;SDS011;48770;51.624;5.886;2023-07-28T07:05:02;0.38;;;0.38;;
62709;SDS011;48770;51.624;5.886;2023-07-28T07:07:27;0.30;;;0.30;;
62709;SDS011;48770;51.624;5.886;2023-07-28T07:09:53;0.30;;;0.30;;
62709;SDS011;48770;51.624;5.886;2023-07-28T07:12:18;0.30;;;0.30;;
62709;SDS011;48770;51.624;5.886;2023-07-28T07:14:45;0.40;;;0.40;;
62709;SDS011;48770;51.624;5.886;2023-07-28T07:17:10;0.40;;;0.40;;
62709;SDS011;48770;51.624;5.886;2023-07-28T07:19:36;0.50;;;0.43;;
62709;SDS011;48770;51.624;5.886;2023-07-28T07:22:01;0.43;;;0.43;;
62709;SDS011;48770;51.624;5.886;2023-07-28T07:24:27;0.80;;;0.40;;
62709;SDS011;48770;51.624;5.886;2023-07-28T07:26:52;0.47;;;0.47;;
62709;SDS011;48770;51.624;5.886;2023-07-28T07:29:17;1.13;;;0.50;;
62709;SDS011;48770;51.624;5.886;2023-07-28T07:31:42;0.98;;;0.57;;
62709;SDS011;48770;51.624;5.886;2023-07-28T07:34:08;0.65;;;0.55;;
62709;SDS011;48770;51.624;5.886;2023-07-28T07:36:33;0.63;;;0.63;;
62709;SDS011;48770;51.624;5.886;2023-07-28T07:38:58;2.60;;;0.90;;
62709;SDS011;48770;51.624;5.886;2023-07-28T07:41:24;0.55;;;0.55;;
62709;SDS011;48770;51.624;5.886;2023-07-28T07:43:50;4.05;;;1.30;;
62709;SDS011;48770;51.624;5.886;2023-07-28T07:46:18;1.40;;;1.30;;
62709;SDS011;48770;51.624;5.886;2023-07-28T07:48:44;4.53;;;1.88;;
62709;SDS011;48770;51.624;5.886;2023-07-28T07:51:10;5.57;;;2.85;;
62709;SDS011;48770;51.624;5.886;2023-07-28T07:53:36;9.85;;;3.10;;
62709;SDS011;48770;51.624;5.886;2023-07-28T07:56:03;11.27;;;2.90;;
62709;SDS011;48770;51.624;5.886;2023-07-28T07:58:29;6.55;;;2.35;;
62709;SDS011;48770;51.624;5.886;2023-07-28T08:00:55;10.55;;;2.85;;
62709;SDS011;48770;51.624;5.886;2023-07-28T08:03:21;11.13;;;2.80;;
62709;SDS011;48770;51.624;5.886;2023-07-28T08:05:46;13.63;;;2.80;;
62709;SDS011;48770;51.624;5.886;2023-07-28T08:08:12;12.95;;;2.95;;
62709;SDS011;48770;51.624;5.886;2023-07-28T08:10:40;9.10;;;2.63;;
62709;SDS011;48770;51.624;5.886;2023-07-28T08:13:05;21.13;;;3.10;;
62709;SDS011;48770;51.624;5.886;2023-07-28T08:15:30;5.93;;;3.00;;
62709;SDS011;48770;51.624;5.886;2023-07-28T08:17:56;7.68;;;2.92;;
62709;SDS011;48770;51.624;5.886;2023-07-28T08:20:21;3.70;;;2.80;;
62709;SDS011;48770;51.624;5.886;2023-07-28T08:22:46;5.63;;;3.37;;
62709;SDS011;48770;51.624;5.886;2023-07-28T08:25:11;8.53;;;3.27;;
62709;SDS011;48770;51.624;5.886;2023-07-28T08:27:37;5.05;;;3.30;;
62709;SDS011;48770;51.624;5.886;2023-07-28T08:30:03;8.17;;;3.00;;
62709;SDS011;48770;51.624;5.886;2023-07-28T08:32:29;5.70;;;3.10;;
62709;SDS011;48770;51.624;5.886;2023-07-28T08:34:54;4.22;;;2.78;;
62709;SDS011;48770;51.624;5.886;2023-07-28T08:37:19;10.07;;;3.88;;
62709;SDS011;48770;51.624;5.886;2023-07-28T08:39:45;9.02;;;3.20;;
62709;SDS011;48770;51.624;5.886;2023-07-28T08:42:10;6.20;;;3.15;;
62709;SDS011;48770;51.624;5.886;2023-07-28T08:44:35;8.10;;;3.35;;
62709;SDS011;48770;51.624;5.886;2023-07-28T08:47:01;5.35;;;3.08;;
62709;SDS011;48770;51.624;5.886;2023-07-28T08:49:29;6.05;;;3.10;;
62709;SDS011;48770;51.624;5.886;2023-07-28T08:51:58;8.43;;;3.25;;
62709;SDS011;48770;51.624;5.886;2023-07-28T08:54:24;5.93;;;3.40;;
62709;SDS011;48770;51.624;5.886;2023-07-28T08:56:49;3.92;;;2.70;;
62709;SDS011;48770;51.624;5.886;2023-07-28T08:59:36;5.65;;;2.95;;
62709;SDS011;48770;51.624;5.886;2023-07-28T09:02:01;5.93;;;3.10;;
62709;SDS011;48770;51.624;5.886;2023-07-28T09:04:27;6.70;;;2.78;;
62709;SDS011;48770;51.624;5.886;2023-07-28T09:06:52;6.40;;;3.17;;
62709;SDS011;48770;51.624;5.886;2023-07-28T09:09:19;8.50;;;3.05;;
62709;SDS011;48770;51.624;5.886;2023-07-28T09:11:50;5.45;;;3.10;;
62709;SDS011;48770;51.624;5.886;2023-07-28T09:14:17;4.50;;;2.80;;
62709;SDS011;48770;51.624;5.886;2023-07-28T09:16:44;3.70;;;3.03;;
62709;SDS011;48770;51.624;5.886;2023-07-28T09:19:10;6.40;;;3.33;;
62709;SDS011;48770;51.624;5.886;2023-07-28T09:21:40;5.10;;;3.15;;
62709;SDS011;48770;51.624;5.886;2023-07-28T09:24:08;2.90;;;2.60;;
62709;SDS011;48770;51.624;5.886;2023-07-28T09:29:17;7.00;;;3.30;;
62709;SDS011;48770;51.624;5.886;2023-07-28T09:31:47;4.45;;;2.70;;
62709;SDS011;48770;51.624;5.886;2023-07-28T09:34:23;4.82;;;2.95;;
62709;SDS011;48770;51.624;5.886;2023-07-28T09:36:56;2.90;;;2.58;;
62709;SDS011;48770;51.624;5.886;2023-07-28T09:39:22;3.60;;;2.60;;
62709;SDS011;48770;51.624;5.886;2023-07-28T09:41:48;5.28;;;2.60;;
62709;SDS011;48770;51.624;5.886;2023-07-28T09:44:14;4.18;;;3.20;;
62709;SDS011;48770;51.624;5.886;2023-07-28T09:46:53;4.70;;;2.95;;
62709;SDS011;48770;51.624;5.886;2023-07-28T09:49:27;4.07;;;2.90;;
62709;SDS011;48770;51.624;5.886;2023-07-28T09:51:57;4.32;;;2.78;;
62709;SDS011;48770;51.624;5.886;2023-07-28T09:54:29;5.60;;;2.80;;
62709;SDS011;48770;51.624;5.886;2023-07-28T09:56:56;2.85;;;2.20;;
62709;SDS011;48770;51.624;5.886;2023-07-28T09:59:24;3.15;;;2.42;;
62709;SDS011;48770;51.624;5.886;2023-07-28T10:01:55;4.07;;;2.58;;
62709;SDS011;48770;51.624;5.886;2023-07-28T10:04:22;2.90;;;2.45;;
62709;SDS011;48770;51.624;5.886;2023-07-28T10:06:47;3.63;;;2.80;;
62709;SDS011;48770;51.624;5.886;2023-07-28T10:09:13;3.20;;;2.40;;
62709;SDS011;48770;51.624;5.886;2023-07-28T10:11:41;2.75;;;2.40;;
62709;SDS011;48770;51.624;5.886;2023-07-28T10:14:07;4.47;;;2.20;;
62709;SDS011;48770;51.624;5.886;2023-07-28T10:16:38;4.53;;;2.42;;
62709;SDS011;48770;51.624;5.886;2023-07-28T10:19:04;3.83;;;2.42;;
62709;SDS011;48770;51.624;5.886;2023-07-28T10:21:31;4.00;;;2.30;;
62709;SDS011;48770;51.624;5.886;2023-07-28T10:23:59;3.33;;;2.65;;
62709;SDS011;48770;51.624;5.886;2023-07-28T10:26:35;2.58;;;2.30;;
62709;SDS011;48770;51.624;5.886;2023-07-28T10:29:10;3.10;;;2.80;;
62709;SDS011;48770;51.624;5.886;2023-07-28T10:31:44;2.80;;;2.50;;
62709;SDS011;48770;51.624;5.886;2023-07-28T10:34:15;3.80;;;2.15;;
62709;SDS011;48770;51.624;5.886;2023-07-28T10:36:43;3.00;;;2.40;;
62709;SDS011;48770;51.624;5.886;2023-07-28T10:41:40;2.70;;;2.25;;
62709;SDS011;48770;51.624;5.886;2023-07-28T10:44:25;2.65;;;2.17;;
62709;SDS011;48770;51.624;5.886;2023-07-28T10:46:50;2.30;;;2.00;;
62709;SDS011;48770;51.624;5.886;2023-07-28T10:49:16;2.63;;;2.33;;
62709;SDS011;48770;51.624;5.886;2023-07-28T10:51:42;3.25;;;2.13;;
62709;SDS011;48770;51.624;5.886;2023-07-28T10:54:07;3.67;;;2.50;;
62709;SDS011;48770;51.624;5.886;2023-07-28T10:56:32;2.90;;;2.00;;
62709;SDS011;48770;51.624;5.886;2023-07-28T10:59:04;2.87;;;2.47;;
62709;SDS011;48770;51.624;5.886;2023-07-28T11:04:10;3.40;;;2.10;;
62709;SDS011;48770;51.624;5.886;2023-07-28T11:06:43;2.33;;;2.13;;
62709;SDS011;48770;51.624;5.886;2023-07-28T11:09:11;2.30;;;1.90;;
62709;SDS011;48770;51.624;5.886;2023-07-28T11:11:38;2.78;;;2.47;;
62709;SDS011;48770;51.624;5.886;2023-07-28T11:14:05;2.28;;;2.08;;
62709;SDS011;48770;51.624;5.886;2023-07-28T11:16:37;3.78;;;2.58;;
62709;SDS011;48770;51.624;5.886;2023-07-28T11:19:07;2.60;;;2.08;;
62709;SDS011;48770;51.624;5.886;2023-07-28T11:21:36;2.40;;;2.20;;
62709;SDS011;48770;51.624;5.886;2023-07-28T11:24:03;2.33;;;2.13;;
62709;SDS011;48770;51.624;5.886;2023-07-28T11:26:28;3.20;;;2.50;;
62709;SDS011;48770;51.624;5.886;2023-07-28T11:28:53;3.05;;;2.13;;
62709;SDS011;48770;51.624;5.886;2023-07-28T11:31:22;2.25;;;2.05;;
62709;SDS011;48770;51.624;5.886;2023-07-28T11:33:48;3.70;;;2.40;;
62709;SDS011;48770;51.624;5.886;2023-07-28T11:36:20;2.88;;;2.20;;
62709;SDS011;48770;51.624;5.886;2023-07-28T11:38:47;3.58;;;1.98;;
62709;SDS011;48770;51.624;5.886;2023-07-28T11:41:13;3.42;;;2.28;;
62709;SDS011;48770;51.624;5.886;2023-07-28T11:43:39;2.92;;;2.50;;
62709;SDS011;48770;51.624;5.886;2023-07-28T11:49:13;2.50;;;2.13;;
62709;SDS011;48770;51.624;5.886;2023-07-28T11:51:44;2.33;;;2.13;;
62709;SDS011;48770;51.624;5.886;2023-07-28T11:54:12;2.00;;;1.90;;
62709;SDS011;48770;51.624;5.886;2023-07-28T11:56:42;3.08;;;1.90;;
62709;SDS011;48770;51.624;5.886;2023-07-28T11:59:09;2.13;;;1.92;;
62709;SDS011;48770;51.624;5.886;2023-07-28T12:01:34;1.88;;;1.77;;
62709;SDS011;48770;51.624;5.886;2023-07-28T12:04:18;2.33;;;2.13;;
62709;SDS011;48770;51.624;5.886;2023-07-28T12:09:52;2.58;;;1.90;;
62709;SDS011;48770;51.624;5.886;2023-07-28T12:12:21;2.70;;;1.83;;
62709;SDS011;48770;51.624;5.886;2023-07-28T12:14:48;1.77;;;1.65;;
62709;SDS011;48770;51.624;5.886;2023-07-28T12:17:20;2.00;;;1.85;;
62709;SDS011;48770;51.624;5.886;2023-07-28T12:22:35;2.30;;;2.10;;
62709;SDS011;48770;51.624;5.886;2023-07-28T12:25:04;1.92;;;1.75;;
62709;SDS011;48770;51.624;5.886;2023-07-28T12:27:30;1.98;;;1.80;;
62709;SDS011;48770;51.624;5.886;2023-07-28T12:29:56;1.75;;;1.65;;
62709;SDS011;48770;51.624;5.886;2023-07-28T12:32:21;2.38;;;1.80;;
62709;SDS011;48770;51.624;5.886;2023-07-28T12:34:50;1.73;;;1.58;;
62709;SDS011;48770;51.624;5.886;2023-07-28T12:37:18;2.10;;;1.63;;
62709;SDS011;48770;51.624;5.886;2023-07-28T12:39:44;1.70;;;1.60;;
62709;SDS011;48770;51.624;5.886;2023-07-28T12:42:10;2.73;;;1.80;;
62709;SDS011;48770;51.624;5.886;2023-07-28T12:44:39;2.33;;;2.13;;
62709;SDS011;48770;51.624;5.886;2023-07-28T12:47:06;2.00;;;1.77;;
62709;SDS011;48770;51.624;5.886;2023-07-28T12:49:32;1.50;;;1.40;;
62709;SDS011;48770;51.624;5.886;2023-07-28T12:51:59;2.03;;;1.60;;
62709;SDS011;48770;51.624;5.886;2023-07-28T12:54:26;1.67;;;1.40;;
62709;SDS011;48770;51.624;5.886;2023-07-28T12:56:53;1.75;;;1.65;;
62709;SDS011;48770;51.624;5.886;2023-07-28T12:59:18;2.00;;;1.80;;
62709;SDS011;48770;51.624;5.886;2023-07-28T13:01:44;1.70;;;1.60;;
62709;SDS011;48770;51.624;5.886;2023-07-28T13:04:09;2.75;;;2.20;;
62709;SDS011;48770;51.624;5.886;2023-07-28T13:06:35;1.50;;;1.40;;
62709;SDS011;48770;51.624;5.886;2023-07-28T13:09:01;1.52;;;1.42;;
62709;SDS011;48770;51.624;5.886;2023-07-28T13:11:27;1.77;;;1.67;;
62709;SDS011;48770;51.624;5.886;2023-07-28T13:13:52;2.40;;;1.67;;
62709;SDS011;48770;51.624;5.886;2023-07-28T13:16:17;2.03;;;1.70;;
62709;SDS011;48770;51.624;5.886;2023-07-28T13:18:43;1.52;;;1.38;;
62709;SDS011;48770;51.624;5.886;2023-07-28T13:21:08;1.67;;;1.58;;
62709;SDS011;48770;51.624;5.886;2023-07-28T13:23:35;1.55;;;1.45;;
62709;SDS011;48770;51.624;5.886;2023-07-28T13:26:01;2.00;;;1.40;;
62709;SDS011;48770;51.624;5.886;2023-07-28T13:28:29;1.73;;;1.52;;
62709;SDS011;48770;51.624;5.886;2023-07-28T13:30:54;1.73;;;1.63;;
62709;SDS011;48770;51.624;5.886;2023-07-28T13:33:20;1.58;;;1.48;;
62709;SDS011;48770;51.624;5.886;2023-07-28T13:35:45;1.50;;;1.33;;
62709;SDS011;48770;51.624;5.886;2023-07-28T13:38:10;1.93;;;1.40;;
62709;SDS011;48770;51.624;5.886;2023-07-28T13:40:36;1.50;;;1.40;;
62709;SDS011;48770;51.624;5.886;2023-07-28T13:43:01;1.33;;;1.23;;
62709;SDS011;48770;51.624;5.886;2023-07-28T13:45:26;0.87;;;0.87;;
62709;SDS011;48770;51.624;5.886;2023-07-28T13:47:52;1.33;;;1.23;;
62709;SDS011;48770;51.624;5.886;2023-07-28T13:50:17;1.60;;;1.40;;
62709;SDS011;48770;51.624;5.886;2023-07-28T13:52:42;1.40;;;1.30;;
62709;SDS011;48770;51.624;5.886;2023-07-28T13:55:08;1.40;;;1.30;;
62709;SDS011;48770;51.624;5.886;2023-07-28T13:57:33;1.48;;;1.25;;
62709;SDS011;48770;51.624;5.886;2023-07-28T13:59:58;1.38;;;1.27;;
62709;SDS011;48770;51.624;5.886;2023-07-28T14:02:24;1.50;;;1.40;;
62709;SDS011;48770;51.624;5.886;2023-07-28T14:04:49;1.40;;;1.30;;
62709;SDS011;48770;51.624;5.886;2023-07-28T14:07:15;1.38;;;1.08;;
62709;SDS011;48770;51.624;5.886;2023-07-28T14:09:41;1.40;;;1.30;;
62709;SDS011;48770;51.624;5.886;2023-07-28T14:12:06;1.80;;;1.25;;
62709;SDS011;48770;51.624;5.886;2023-07-28T14:14:32;1.30;;;1.17;;
62709;SDS011;48770;51.624;5.886;2023-07-28T14:16:57;1.83;;;1.67;;
62709;SDS011;48770;51.624;5.886;2023-07-28T14:19:23;1.30;;;1.20;;
62709;SDS011;48770;51.624;5.886;2023-07-28T14:21:48;1.20;;;1.10;;
62709;SDS011;48770;51.624;5.886;2023-07-28T14:24:13;1.55;;;1.30;;
62709;SDS011;48770;51.624;5.886;2023-07-28T14:26:39;1.30;;;1.20;;
62709;SDS011;48770;51.624;5.886;2023-07-28T14:29:04;1.23;;;1.13;;
62709;SDS011;48770;51.624;5.886;2023-07-28T14:31:30;1.27;;;1.17;;
62709;SDS011;48770;51.624;5.886;2023-07-28T14:33:56;1.15;;;1.05;;
62709;SDS011;48770;51.624;5.886;2023-07-28T14:36:21;1.13;;;1.10;;
62709;SDS011;48770;51.624;5.886;2023-07-28T14:38:46;1.23;;;1.10;;
62709;SDS011;48770;51.624;5.886;2023-07-28T14:41:12;1.20;;;1.10;;
62709;SDS011;48770;51.624;5.886;2023-07-28T14:43:37;1.00;;;0.90;;
62709;SDS011;48770;51.624;5.886;2023-07-28T14:46:03;1.63;;;1.52;;
62709;SDS011;48770;51.624;5.886;2023-07-28T14:48:28;1.10;;;1.00;;
62709;SDS011;48770;51.624;5.886;2023-07-28T14:50:53;1.23;;;0.87;;
62709;SDS011;48770;51.624;5.886;2023-07-28T14:55:54;1.27;;;1.17;;
62709;SDS011;48770;51.624;5.886;2023-07-28T14:58:20;0.93;;;0.93;;
62709;SDS011;48770;51.624;5.886;2023-07-28T15:00:45;1.00;;;0.90;;
62709;SDS011;48770;51.624;5.886;2023-07-28T15:03:11;1.35;;;1.25;;
62709;SDS011;48770;51.624;5.886;2023-07-28T15:05:36;1.00;;;0.90;;
62709;SDS011;48770;51.624;5.886;2023-07-28T15:08:02;1.17;;;1.07;;
62709;SDS011;48770;51.624;5.886;2023-07-28T15:10:27;1.00;;;0.90;;